Strona główna
METAR-TAF:

METAR-TAF

Lotnisko :

Port lotniczy Sørkjosen

Sørkjosen, Norwegia

Szerokość geograficzna: 69-47N, Długość geograficzna: 020-58E, wysokość: 0 m

Aktualna obserwacja pogody

Raport powstał 15 godziny i 41 minut temu, godzina 10:50 UTC
Wiatr 9 kt od południowy wschód
Temperatura -3°C
Wilgotność 80%
Ciśnienie 1017 hPa
Widzialność: 4000 m
słaby przelotny opad śniegu

METAR: ENSR 051050Z 14009KT 4000 -SHSN VV020 M03/M06 Q1017 RMK WIND 1119FT 19012KTKT

czas: 04:31 (02:31 UTC)


TAF: brakujący

Obserwacja i prognoza pogody dla ponad 4000 lotnisk (raport METAR i TAF).

Dostępne stacje oznaczono żółtymi i czerwonymi punktami na mapie.

Najedź kursorem aby zobaczyć nazwę stacji.

Kliknij aby zobaczyć obserwacje i prognozy pogody.

Aby zmienić mapę: kliknij na zielony przycisk z czarnym krzyżykiem, aby powiększyć; na zielony przycisk z myślnikiem, aby pomniejszyć; na zielone strzałki, aby przejść do map sąsiednich.


METAR-TAF: